• Join FlightAware (Why Join?)
  • Login
  • US Flag 
12:22PM EDT


 

Airport Tracker/Info


-or-


 

Live Flight TrackerFlight Track Log ✈ N859JG ✈ 14-Jun-2013 ✈ KMTN - KBLM

Flight Track Log - Related Links

Times and Time Zones

All times are in EDT time to prevent confusion due to time zone crossing. See the N859JG flight status page for this flight to view local times or setup timezone preferences in your user account.

Time Position Orientation Groundspeed Altitude Reporting Facility
EDT Latitude Longitude Course Direction KTS MPH feet Rate Location/Type
06:08PM 39.2500 -76.4000 142° Southeast 146 168 2,800  Level Potomac TRACON
06:09PM 39.2500 -76.3500 90° East 141 162 3,600 540 Climbing Potomac TRACON
06:10PM 39.2500 -76.2833 90° East 165 190 4,000 180 Climbing Potomac TRACON
06:11PM 39.2667 -76.2333 67° East 189 217 4,000  Level Potomac TRACON
06:12PM 39.2667 -76.1500 90° East 194 223 4,000 240 Level Potomac TRACON
06:13PM 39.4063 -76.1034 70° East  Level FlightAware Approximate
06:13PM 39.2667 -76.0833 90° East 182 209 4,500  Level Potomac TRACON
06:15PM 39.2833 -76.0333 67° East 173 199 5,000 240 Climbing Philadelphia TRACON
06:15PM 39.3167 -76.0000 38° Northeast 172 198 5,000  Level Philadelphia TRACON
06:16PM 39.3500 -75.9667 38° Northeast 176 203 5,000  Level Philadelphia TRACON
06:17PM 39.4000 -75.9333 27° Northeast 179 206 5,000  Level Philadelphia TRACON
06:18PM 39.4333 -75.8833 49° Northeast 178 205 5,000  Level Philadelphia TRACON
06:19PM 39.4667 -75.8500 38° Northeast 176 203 5,000  Level Philadelphia TRACON
06:20PM 39.5000 -75.8000 49° Northeast 190 219 5,000  Level Philadelphia TRACON
06:21PM 39.5167 -75.7333 72° East 186 214 5,000  Level Philadelphia TRACON
06:22PM 39.5333 -75.6667 72° East 189 217 5,000  Level Philadelphia TRACON
06:23PM 39.5500 -75.6167 67° East 189 217 5,000  Level Philadelphia TRACON
06:24PM 39.5667 -75.5500 72° East 186 214 5,000  Level Philadelphia TRACON
06:25PM 39.5833 -75.4833 72° East 184 212 5,000  Level Philadelphia TRACON
06:27PM 39.6000 -75.4167 72° East 185 213 5,000  Level Philadelphia TRACON
06:28PM 39.6333 -75.3500 57° Northeast 185 213 5,000  Level Philadelphia TRACON
06:28PM 39.6333 -75.3000 90° East 189 217 5,000  Level Philadelphia TRACON
06:29PM 39.6667 -75.2500 49° Northeast 176 203 5,000  Level Philadelphia TRACON
06:30PM 39.7167 -75.2000 38° Northeast 177 204 5,000  Level Philadelphia TRACON
06:31PM 39.7500 -75.1500 49° Northeast 183 211 5,000  Level Philadelphia TRACON
06:32PM 39.7500 -75.0833 90° East 200 230 5,000  Level Philadelphia TRACON
06:34PM 39.7555 -75.0235 83° East  Level FlightAware Approximate
06:41PM 39.7924 -74.6236 81° East  Level FlightAware Approximate
06:42PM 39.7990 -74.5677 81° East  Level FlightAware Approximate
06:43PM 39.8055 -74.5119 81° East  Level FlightAware Approximate
06:44PM 39.8121 -74.4560 81° East  Level FlightAware Approximate
06:45PM 39.8273 -74.4074 34° Northeast  Level FlightAware Approximate
06:46PM 39.8633 -74.3759 34° Northeast  Level FlightAware Approximate
06:47PM 39.8994 -74.3444 34° Northeast  Level FlightAware Approximate
06:48PM 39.9354 -74.3128 34° Northeast  Level FlightAware Approximate
06:49PM 39.9705 -74.2795 37° Northeast  Level FlightAware Approximate
06:50PM 40.0076 -74.2505 27° Northeast  Level FlightAware Approximate
06:51PM 40.0462 -74.2247 27° Northeast  Level FlightAware Approximate
06:52PM 40.0847 -74.1986 37° Northeast  Level FlightAware Approximate
06:53PM 40.1194 -74.1646 30° Northeast  Level FlightAware Approximate
06:54PM 40.1571 -74.1364 30° Northeast  Level FlightAware Approximate
06:55PM 40.1833 -74.1167 30° Northeast  Level FlightAware Approximate
06:56PM 40.1867 -74.1246 30° Northeast  Level Estimated
06:57PM 40.1833 -74.1167 30° Northeast  Level FlightAware Approximate
06:58PM 40.1867 -74.1246 30° Northeast  Level Estimated
06:59PM 40.1833 -74.1167 30° Northeast  Level FlightAware Approximate
07:00PM 40.1867 -74.1246 30° Northeast  Level Estimated
07:01PM 40.1833 -74.1167 30° Northeast  Level FlightAware Approximate
07:02PM 40.1867 -74.1246 30° Northeast  Level Estimated